| time (UTC) | temp F | wind direction | speed MPH | gust MPH | rain 1hr in | rain 24hr in | rain mn in | humidity % | barometer mb |
| 20260507065104 | 51 | 215 | 1.0 | 3.0 | 0.00 | 0.00 | 0.00 | 85 | 1015.3 |
| 20260507064105 | 50 | 167 | 2.0 | 3.0 | 0.00 | 0.00 | 0.00 | 85 | 1015.3 |
| 20260507063603 | 50 | 167 | 1.0 | 5.0 | 0.00 | 0.00 | 0.00 | 86 | 1015.3 |
| 20260507062104 | 50 | 116 | 2.0 | 3.0 | 0.00 | 0.00 | 0.00 | 87 | 1015.2 |
| 20260507061605 | 49 | 114 | 0.0 | 3.0 | 0.00 | 0.00 | 0.00 | 87 | 1015.2 |
| 20260507060606 | 49 | 114 | 0.0 | 2.0 | 0.00 | 0.00 | 0.00 | 87 | 1015.1 |
| 20260507060105 | 48 | 114 | 1.0 | 3.0 | 0.00 | 0.00 | 0.00 | 87 | 1015.0 |
| 20260507054605 | 47 | 114 | 0.0 | 0.0 | 0.00 | 0.00 | 0.00 | 88 | 1015.0 |
| 20260507051605 | 46 | 114 | 0.0 | 0.0 | 0.00 | 0.00 | 0.00 | 87 | 1014.8 |
| 20260507051108 | 46 | 114 | 0.0 | 0.0 | 0.00 | 0.00 | 0.00 | 87 | 1014.8 |
| 20260507050105 | 46 | 114 | 0.0 | 1.0 | 0.00 | 0.00 | 0.00 | 87 | 1014.7 |
| 20260507044607 | 46 | 114 | 0.0 | 1.0 | 0.00 | 0.00 | 0.00 | 87 | 1014.6 |
| 20260507043105 | 46 | 114 | 0.0 | 2.0 | 0.00 | 0.00 | 0.00 | 87 | 1014.6 |
| 20260507042604 | 46 | 114 | 0.0 | 3.0 | 0.00 | 0.00 | 0.00 | 87 | 1014.6 |
| 20260507042104 | 46 | 114 | 1.0 | 2.0 | 0.00 | 0.00 | 0.00 | 87 | 1014.7 |
| 20260507041105 | 46 | 114 | 1.0 | 2.0 | 0.00 | 0.00 | 0.00 | 87 | 1014.7 |
| 20260507040605 | 45 | 114 | 0.0 | 0.0 | 0.00 | 0.00 | 0.00 | 87 | 1014.6 |
| 20260507035607 | 45 | 114 | 0.0 | 1.0 | 0.00 | 0.00 | 0.00 | 87 | 1014.6 |
| 20260507035105 | 45 | 114 | 0.0 | 2.0 | 0.00 | 0.00 | 0.00 | 86 | 1014.6 |
| 20260507034105 | 45 | 114 | 1.0 | 3.0 | 0.00 | 0.00 | 0.00 | 86 | 1014.6 |
| 20260507033605 | 45 | 114 | 1.0 | 3.0 | 0.00 | 0.00 | 0.00 | 86 | 1014.5 |
| 20260507032105 | 46 | 114 | 1.0 | 3.0 | 0.00 | 0.00 | 0.00 | 86 | 1014.6 |
| 20260507031105 | 46 | 114 | 2.0 | 3.0 | 0.00 | 0.00 | 0.00 | 86 | 1014.6 |
| 20260507030605 | 46 | 114 | 2.0 | 3.0 | 0.00 | 0.00 | 0.00 | 86 | 1014.5 |
| 20260507025604 | 46 | 114 | 2.0 | 3.0 | 0.00 | 0.00 | 0.00 | 85 | 1014.6 |
| 20260507024605 | 46 | 114 | 2.0 | 3.0 | 0.00 | 0.00 | 0.00 | 85 | 1014.5 |
| 20260507021605 | 47 | 114 | 0.0 | 2.0 | 0.00 | 0.00 | 0.00 | 84 | 1014.4 |
| 20260507021105 | 47 | 114 | 0.0 | 1.0 | 0.00 | 0.00 | 0.00 | 84 | 1014.4 |
| 20260507015604 | 47 | 114 | 1.0 | 3.0 | 0.00 | 0.00 | 0.00 | 84 | 1014.3 |
| 20260507014604 | 48 | 121 | 2.0 | 3.0 | 0.00 | 0.00 | 0.00 | 84 | 1014.3 |
| 20260507014105 | 48 | 106 | 1.0 | 3.0 | 0.00 | 0.00 | 0.00 | 84 | 1014.3 |
| 20260507013105 | 48 | 110 | 1.0 | 3.0 | 0.00 | 0.00 | 0.00 | 84 | 1014.3 |
| 20260507012104 | 48 | 60 | 3.0 | 5.0 | 0.00 | 0.00 | 0.00 | 84 | 1014.3 |
| 20260507010605 | 48 | 83 | 2.0 | 5.0 | 0.00 | 0.00 | 0.00 | 84 | 1014.3 |
| 20260507010104 | 48 | 112 | 2.0 | 6.0 | 0.00 | 0.00 | 0.00 | 83 | 1014.3 |
| 20260507005604 | 48 | 95 | 3.0 | 5.0 | 0.00 | 0.00 | 0.00 | 83 | 1014.3 |
| 20260507005104 | 48 | 86 | 2.0 | 5.0 | 0.00 | 0.00 | 0.00 | 83 | 1014.3 |
| 20260507004606 | 49 | 65 | 3.0 | 5.0 | 0.00 | 0.00 | 0.00 | 83 | 1014.3 |
| 20260507004105 | 49 | 43 | 3.0 | 7.0 | 0.00 | 0.00 | 0.00 | 83 | 1014.3 |
| 20260507003105 | 49 | 58 | 3.0 | 8.0 | 0.00 | 0.00 | 0.00 | 83 | 1014.3 |
| 20260507002604 | 49 | 55 | 2.0 | 5.0 | 0.00 | 0.00 | 0.00 | 83 | 1014.4 |
| 20260507001104 | 49 | 56 | 2.0 | 7.0 | 0.00 | 0.00 | 0.00 | 82 | 1014.4 |
| 20260507000105 | 49 | 55 | 2.0 | 6.0 | 0.00 | 0.00 | 0.00 | 82 | 1014.5 |
| 20260506234605 | 49 | 75 | 2.0 | 5.0 | 0.00 | 0.00 | 0.00 | 81 | 1014.3 |
| 20260506234104 | 49 | 77 | 2.0 | 6.0 | 0.00 | 0.00 | 0.00 | 80 | 1014.2 |
| 20260506233105 | 49 | 69 | 2.0 | 5.0 | 0.00 | 0.00 | 0.00 | 80 | 1014.2 |
| 20260506232105 | 50 | 71 | 1.0 | 3.0 | 0.00 | 0.00 | 0.00 | 79 | 1014.1 |
| 20260506231106 | 50 | 103 | 1.0 | 5.0 | 0.00 | 0.00 | 0.00 | 78 | 1014.1 |
| 20260506230604 | 50 | 109 | 2.0 | 3.0 | 0.00 | 0.00 | 0.00 | 78 | 1014.1 |
| 20260506225104 | 50 | 71 | 2.0 | 6.0 | 0.00 | 0.00 | 0.00 | 77 | 1014.1 |
| 20260506224604 | 51 | 55 | 2.0 | 6.0 | 0.00 | 0.00 | 0.00 | 77 | 1014.1 |
| 20260506224104 | 51 | 107 | 3.0 | 6.0 | 0.00 | 0.00 | 0.00 | 76 | 1014.1 |
| 20260506223606 | 51 | 86 | 3.0 | 6.0 | 0.00 | 0.00 | 0.00 | 76 | 1014.1 |
| 20260506222605 | 51 | 121 | 3.0 | 6.0 | 0.00 | 0.00 | 0.00 | 75 | 1014.1 |
| 20260506222105 | 51 | 57 | 4.0 | 8.0 | 0.00 | 0.00 | 0.00 | 74 | 1014.0 |
| 20260506221104 | 51 | 55 | 3.0 | 6.0 | 0.00 | 0.00 | 0.00 | 74 | 1013.9 |
| 20260506220604 | 51 | 119 | 3.0 | 8.0 | 0.00 | 0.00 | 0.00 | 74 | 1014.0 |
| 20260506215605 | 51 | 66 | 2.0 | 5.0 | 0.00 | 0.00 | 0.00 | 73 | 1013.9 |
| 20260506213605 | 52 | 55 | 3.0 | 6.0 | 0.00 | 0.00 | 0.00 | 72 | 1013.9 |
| 20260506213104 | 52 | 101 | 2.0 | 6.0 | 0.00 | 0.00 | 0.00 | 72 | 1013.9 |
| 20260506211105 | 52 | 117 | 2.0 | 6.0 | 0.00 | 0.00 | 0.00 | 72 | 1013.8 |
| 20260506210604 | 52 | 112 | 4.0 | 7.0 | 0.00 | 0.00 | 0.00 | 72 | 1013.8 |
| 20260506203604 | 53 | 97 | 4.0 | 9.0 | 0.00 | 0.00 | 0.00 | 70 | 1013.6 |
| 20260506203104 | 53 | 53 | 4.0 | 9.0 | 0.00 | 0.00 | 0.00 | 69 | 1013.6 |
| 20260506202604 | 53 | 62 | 4.0 | 10.0 | 0.00 | 0.00 | 0.00 | 69 | 1013.5 |
| 20260506201605 | 53 | 73 | 4.0 | 7.0 | 0.00 | 0.00 | 0.00 | 67 | 1013.5 |
| 20260506201105 | 54 | 117 | 5.0 | 8.0 | 0.00 | 0.00 | 0.00 | 67 | 1013.4 |
| 20260506200605 | 54 | 52 | 6.0 | 12.0 | 0.00 | 0.00 | 0.00 | 66 | 1013.4 |
| 20260506200105 | 54 | 106 | 3.0 | 9.0 | 0.00 | 0.00 | 0.00 | 66 | 1013.3 |
| 20260506195605 | 54 | 72 | 3.0 | 7.0 | 0.00 | 0.00 | 0.00 | 65 | 1013.3 |
| 20260506193605 | 54 | 109 | 6.0 | 12.0 | 0.00 | 0.00 | 0.00 | 64 | 1012.9 |
| 20260506192604 | 54 | 122 | 3.0 | 8.0 | 0.00 | 0.00 | 0.00 | 63 | 1012.9 |
| 20260506192104 | 55 | 126 | 5.0 | 12.0 | 0.00 | 0.00 | 0.00 | 63 | 1012.9 |
| 20260506191105 | 55 | 117 | 5.0 | 8.0 | 0.00 | 0.00 | 0.00 | 62 | 1012.8 |
| 20260506190606 | 55 | 119 | 5.0 | 10.0 | 0.00 | 0.00 | 0.00 | 62 | 1012.8 |
| 20260506190104 | 55 | 98 | 3.0 | 7.0 | 0.00 | 0.00 | 0.00 | 61 | 1012.8 |
| 20260506184105 | 56 | 60 | 5.0 | 12.0 | 0.00 | 0.00 | 0.00 | 60 | 1012.6 |
| 20260506181104 | 57 | 69 | 6.0 | 10.0 | 0.00 | 0.00 | 0.00 | 55 | 1012.3 |
| 20260506180606 | 57 | 58 | 5.0 | 9.0 | 0.00 | 0.00 | 0.00 | 55 | 1012.2 |
| 20260506175604 | 58 | 60 | 6.0 | 12.0 | 0.00 | 0.00 | 0.00 | 54 | 1012.1 |
| 20260506175104 | 58 | 98 | 5.0 | 13.0 | 0.00 | 0.00 | 0.00 | 53 | 1012.1 |
| 20260506170104 | 58 | 113 | 5.0 | 10.0 | 0.00 | 0.00 | 0.00 | 56 | 1011.9 |
| 20260506165104 | 58 | 63 | 7.0 | 12.0 | 0.00 | 0.00 | 0.00 | 55 | 1011.8 |
| 20260506164604 | 58 | 72 | 3.0 | 12.0 | 0.00 | 0.00 | 0.00 | 56 | 1011.9 |
| 20260506164104 | 58 | 113 | 5.0 | 12.0 | 0.00 | 0.00 | 0.00 | 56 | 1011.9 |
| 20260506163104 | 58 | 123 | 5.0 | 12.0 | 0.00 | 0.00 | 0.00 | 57 | 1011.9 |
| 20260506162604 | 58 | 65 | 4.0 | 9.0 | 0.00 | 0.00 | 0.00 | 57 | 1011.9 |
| 20260506162104 | 58 | 65 | 4.0 | 9.0 | 0.00 | 0.00 | 0.00 | 57 | 1011.9 |
| 20260506161604 | 58 | 36 | 6.0 | 10.0 | 0.00 | 0.00 | 0.00 | 57 | 1011.9 |
| 20260506161104 | 58 | 40 | 6.0 | 12.0 | 0.00 | 0.00 | 0.00 | 57 | 1011.9 |
| 20260506160605 | 58 | 119 | 3.0 | 10.0 | 0.00 | 0.00 | 0.00 | 57 | 1011.9 |
| 20260506160104 | 58 | 59 | 5.0 | 9.0 | 0.00 | 0.00 | 0.00 | 57 | 1011.9 |
| 20260506155104 | 57 | 68 | 5.0 | 10.0 | 0.00 | 0.00 | 0.00 | 57 | 1012.0 |
| 20260506154605 | 57 | 103 | 5.0 | 12.0 | 0.00 | 0.00 | 0.00 | 57 | 1012.0 |
| 20260506153604 | 57 | 127 | 5.0 | 8.0 | 0.00 | 0.00 | 0.00 | 58 | 1012.0 |
| 20260506153104 | 57 | 86 | 5.0 | 8.0 | 0.00 | 0.00 | 0.00 | 58 | 1012.1 |
| 20260506151604 | 57 | 76 | 3.0 | 8.0 | 0.00 | 0.00 | 0.00 | 59 | 1012.1 |
| 20260506151103 | 57 | 76 | 5.0 | 10.0 | 0.00 | 0.00 | 0.00 | 59 | 1012.1 |
| 20260506145104 | 56 | 98 | 4.0 | 10.0 | 0.00 | 0.00 | 0.00 | 60 | 1012.1 |
| 20260506144604 | 57 | 55 | 5.0 | 14.0 | 0.00 | 0.00 | 0.00 | 60 | 1012.0 |
| 20260506144104 | 57 | 77 | 5.0 | 10.0 | 0.00 | 0.00 | 0.00 | 60 | 1012.1 |
| 20260506143604 | 57 | 62 | 6.0 | 12.0 | 0.00 | 0.00 | 0.00 | 59 | 1012.1 |
| 20260506142106 | 59 | 95 | 7.0 | 15.0 | 0.00 | 0.00 | 0.00 | 57 | 1012.0 |
| 20260506141603 | 59 | 54 | 5.0 | 10.0 | 0.00 | 0.00 | 0.00 | 56 | 1012.0 |
| 20260506141104 | 60 | 38 | 6.0 | 13.0 | 0.00 | 0.00 | 0.00 | 55 | 1012.0 |
| 20260506140604 | 60 | 122 | 6.0 | 14.0 | 0.00 | 0.00 | 0.00 | 54 | 1012.0 |
| 20260506140104 | 61 | 99 | 3.0 | 12.0 | 0.00 | 0.00 | 0.00 | 55 | 1011.9 |
| 20260506135104 | 60 | 75 | 4.0 | 12.0 | 0.00 | 0.00 | 0.00 | 56 | 1012.0 |
| 20260506134606 | 59 | 51 | 5.0 | 12.0 | 0.00 | 0.00 | 0.00 | 56 | 1012.1 |
| 20260506134103 | 59 | 127 | 8.0 | 14.0 | 0.00 | 0.00 | 0.00 | 54 | 1012.1 |
| 20260506133604 | 59 | 66 | 5.0 | 13.0 | 0.00 | 0.00 | 0.00 | 54 | 1012.1 |
| 20260506133104 | 59 | 83 | 8.0 | 15.0 | 0.00 | 0.00 | 0.00 | 55 | 1012.1 |
| 20260506132104 | 59 | 75 | 7.0 | 14.0 | 0.00 | 0.00 | 0.00 | 58 | 1012.2 |
| 20260506130604 | 57 | 69 | 6.0 | 13.0 | 0.00 | 0.00 | 0.00 | 59 | 1012.2 |
| 20260506130104 | 57 | 109 | 7.0 | 16.0 | 0.00 | 0.00 | 0.00 | 59 | 1012.2 |
| 20260506125104 | 60 | 74 | 7.0 | 17.0 | 0.00 | 0.00 | 0.00 | 56 | 1012.2 |
| 20260506124604 | 60 | 84 | 5.0 | 13.0 | 0.00 | 0.00 | 0.00 | 57 | 1012.1 |
| 20260506124104 | 59 | 90 | 5.0 | 12.0 | 0.00 | 0.00 | 0.00 | 56 | 1012.0 |
| 20260506123604 | 60 | 99 | 6.0 | 14.0 | 0.00 | 0.00 | 0.00 | 56 | 1012.0 |
| 20260506123104 | 60 | 56 | 6.0 | 12.0 | 0.00 | 0.00 | 0.00 | 55 | 1012.1 |
| 20260506122604 | 60 | 71 | 6.0 | 15.0 | 0.00 | 0.00 | 0.00 | 54 | 1012.1 |
| 20260506122104 | 59 | 107 | 5.0 | 12.0 | 0.00 | 0.00 | 0.00 | 56 | 1012.1 |
| 20260506121604 | 59 | 65 | 7.0 | 13.0 | 0.00 | 0.00 | 0.00 | 56 | 1012.2 |
| 20260506114604 | 59 | 60 | 8.0 | 15.0 | 0.00 | 0.00 | 0.00 | 56 | 1012.1 |
| 20260506114104 | 59 | 86 | 7.0 | 17.0 | 0.00 | 0.00 | 0.00 | 56 | 1012.1 |
| 20260506113604 | 59 | 107 | 7.0 | 15.0 | 0.00 | 0.00 | 0.00 | 56 | 1012.1 |
| 20260506112603 | 57 | 56 | 9.0 | 17.0 | 0.00 | 0.00 | 0.00 | 58 | 1012.2 |
| 20260506112104 | 58 | 59 | 7.0 | 15.0 | 0.00 | 0.00 | 0.00 | 57 | 1012.2 |
| 20260506111104 | 59 | 52 | 9.0 | 16.0 | 0.00 | 0.00 | 0.00 | 54 | 1012.1 |
| 20260506104104 | 57 | 50 | 5.0 | 17.0 | 0.00 | 0.00 | 0.00 | 56 | 1012.3 |
| 20260506103604 | 56 | 37 | 6.0 | 15.0 | 0.00 | 0.00 | 0.00 | 57 | 1012.3 |
| 20260506102104 | 56 | 82 | 6.0 | 15.0 | 0.00 | 0.00 | 0.00 | 59 | 1012.4 |
| 20260506095603 | 58 | 70 | 6.0 | 14.0 | 0.00 | 0.00 | 0.00 | 55 | 1012.3 |
| 20260506095104 | 57 | 105 | 8.0 | 18.0 | 0.00 | 0.00 | 0.00 | 56 | 1012.3 |
| 20260506094104 | 57 | 104 | 7.0 | 13.0 | 0.00 | 0.00 | 0.00 | 56 | 1012.3 |
| 20260506093604 | 57 | 82 | 7.0 | 15.0 | 0.00 | 0.00 | 0.00 | 57 | 1012.4 |
| 20260506092604 | 56 | 75 | 6.0 | 14.0 | 0.00 | 0.00 | 0.00 | 57 | 1012.3 |
| 20260506092104 | 56 | 46 | 9.0 | 14.0 | 0.00 | 0.00 | 0.00 | 57 | 1012.3 |
| 20260506091604 | 55 | 69 | 6.0 | 12.0 | 0.00 | 0.00 | 0.00 | 58 | 1012.2 |
| 20260506090604 | 56 | 70 | 9.0 | 15.0 | 0.00 | 0.00 | 0.00 | 57 | 1012.2 |
| 20260506090104 | 56 | 50 | 3.0 | 12.0 | 0.00 | 0.00 | 0.00 | 60 | 1012.2 |
| 20260506085603 | 56 | 48 | 5.0 | 12.0 | 0.00 | 0.00 | 0.00 | 62 | 1012.2 |
| 20260506085104 | 55 | 102 | 6.0 | 12.0 | 0.00 | 0.00 | 0.00 | 63 | 1012.2 |
| 20260506084603 | 54 | 58 | 7.0 | 12.0 | 0.00 | 0.00 | 0.00 | 65 | 1012.2 |
| 20260506083604 | 53 | 17 | 10.0 | 17.0 | 0.00 | 0.00 | 0.00 | 65 | 1012.2 |
| 20260506083104 | 53 | 31 | 9.0 | 14.0 | 0.00 | 0.00 | 0.00 | 67 | 1012.1 |
| 20260506082104 | 53 | 28 | 7.0 | 12.0 | 0.00 | 0.00 | 0.00 | 69 | 1012.1 |
| 20260506081604 | 52 | 55 | 5.0 | 9.0 | 0.00 | 0.00 | 0.00 | 70 | 1012.2 |
| 20260506081103 | 52 | 53 | 5.0 | 12.0 | 0.00 | 0.00 | 0.00 | 70 | 1012.3 |
| 20260506080603 | 52 | 37 | 5.0 | 8.0 | 0.00 | 0.00 | 0.00 | 72 | 1012.2 |
| 20260506073104 | 51 | 49 | 7.0 | 14.0 | 0.00 | 0.00 | 0.00 | 74 | 1012.3 |
| 20260506072604 | 50 | 48 | 5.0 | 12.0 | 0.00 | 0.00 | 0.00 | 74 | 1012.3 |
| 20260506072103 | 50 | 34 | 5.0 | 12.0 | 0.00 | 0.00 | 0.00 | 76 | 1012.3 |
| 20260506071604 | 50 | 121 | 4.0 | 9.0 | 0.00 | 0.00 | 0.00 | 76 | 1012.3 |
| 20260506071104 | 49 | 51 | 5.0 | 8.0 | 0.00 | 0.00 | 0.00 | 77 | 1012.3 |
| 20260506070104 | 49 | 34 | 6.0 | 9.0 | 0.00 | 0.00 | 0.00 | 77 | 1012.2 |